Time;durP1;ratioP1;P1;durP2;ratioP2;P2;SDS_P1;SDS_P2;PMS_P1;PMS_P2;Temp;Humidity;BMP_temperature;BMP_pressure;BME280_temperature;BME280_humidity;BME280_pressure;Samples;Min_cycle;Max_cycle;Signal;HPM_P1;HPM_P2
2023/01/20 00:02:27;;;;;;;1.08;0.80;;;15.60;67.30;;;;;;4019247;29;20056;-66
2023/01/20 00:05:08;;;;;;;1.85;0.80;;;15.60;67.40;;;;;;4019128;29;20056;-65
2023/01/20 00:07:50;;;;;;;1.20;0.90;;;15.50;67.40;;;;;;4018810;29;20060;-65
2023/01/20 00:10:30;;;;;;;1.20;1.10;;;15.50;67.50;;;;;;4019033;29;20052;-65
2023/01/20 00:13:13;;;;;;;1.10;1.10;;;15.40;67.90;;;;;;4018763;29;20186;-65
2023/01/20 00:15:54;;;;;;;1.95;1.15;;;15.40;68.20;;;;;;4018902;29;20532;-65
2023/01/20 00:18:35;;;;;;;0.85;0.77;;;15.40;68.40;;;;;;4018514;29;20052;-65
2023/01/20 00:21:16;;;;;;;1.08;0.85;;;15.40;68.20;;;;;;4018730;29;20052;-65
2023/01/20 00:23:57;;;;;;;1.50;0.90;;;15.40;68.40;;;;;;4018833;29;20145;-65
2023/01/20 00:26:38;;;;;;;3.25;1.10;;;15.40;68.30;;;;;;4018427;29;20077;-64
2023/01/20 00:29:20;;;;;;;1.83;0.80;;;15.40;68.30;;;;;;4017581;29;20052;-65
2023/01/20 00:32:01;;;;;;;1.20;0.93;;;15.40;68.30;;;;;;4007131;29;20061;-65
2023/01/20 00:34:41;;;;;;;1.40;1.03;;;15.40;68.20;;;;;;4018540;29;20071;-64
2023/01/20 00:37:22;;;;;;;1.33;1.00;;;15.50;68.10;;;;;;4018474;29;20421;-62
2023/01/20 00:40:05;;;;;;;2.88;1.00;;;15.40;67.90;;;;;;4018603;29;20048;-64
2023/01/20 00:42:45;;;;;;;;;;;15.40;68.00;;;;;;4018574;29;20076;-63
2023/01/20 00:45:27;;;;;;;1.98;1.17;;;15.50;68.30;;;;;;4018647;29;20484;-63
2023/01/20 00:48:08;;;;;;;1.58;1.23;;;15.40;68.20;;;;;;4018574;29;20081;-63
2023/01/20 00:50:49;;;;;;;1.55;0.90;;;15.50;68.20;;;;;;4018493;29;20117;-63
2023/01/20 00:53:30;;;;;;;1.23;1.13;;;15.60;67.50;;;;;;4018477;29;20154;-63
2023/01/20 00:56:11;;;;;;;1.00;1.00;;;15.60;67.40;;;;;;4017860;29;20052;-63
2023/01/20 00:58:53;;;;;;;1.38;1.20;;;15.60;67.40;;;;;;4018306;29;20060;-64
2023/01/20 01:01:36;;;;;;;2.70;1.38;;;15.70;67.40;;;;;;4018180;29;20057;-63
2023/01/20 01:04:17;;;;;;;1.73;1.60;;;15.70;67.00;;;;;;4018201;29;20397;-63
2023/01/20 01:06:58;;;;;;;1.35;1.25;;;15.70;66.90;;;;;;4006871;29;20056;-64
2023/01/20 01:09:39;;;;;;;1.75;1.65;;;15.70;66.80;;;;;;4018238;29;20060;-63
2023/01/20 01:12:20;;;;;;;1.55;1.52;;;15.70;66.90;;;;;;4018209;29;20189;-65
2023/01/20 01:15:01;;;;;;;1.77;1.67;;;15.70;67.10;;;;;;4018229;29;20064;-66
2023/01/20 01:17:43;;;;;;;2.97;2.05;;;15.70;67.30;;;;;;4017672;29;20060;-63
2023/01/20 01:20:25;;;;;;;1.80;1.70;;;15.70;67.10;;;;;;4017890;29;20056;-64
2023/01/20 01:23:06;;;;;;;;;;;15.80;66.90;;;;;;4018205;29;20492;-63
2023/01/20 01:25:46;;;;;;;1.67;1.67;;;15.80;66.80;;;;;;4017519;29;20060;-63
2023/01/20 01:28:27;;;;;;;1.70;1.60;;;15.80;66.80;;;;;;4017883;29;20192;-63
2023/01/20 01:31:08;;;;;;;2.47;2.00;;;15.70;66.80;;;;;;4017611;29;20057;-63
2023/01/20 01:33:51;;;;;;;2.47;2.28;;;15.70;67.10;;;;;;4017177;29;20627;-64
2023/01/20 01:36:32;;;;;;;3.25;2.10;;;15.70;67.10;;;;;;4017629;29;20057;-63
2023/01/20 01:39:13;;;;;;;2.28;2.08;;;15.70;66.80;;;;;;4017794;29;20189;-63
2023/01/20 01:41:53;;;;;;;2.60;2.40;;;15.70;66.70;;;;;;4017699;29;20186;-63
2023/01/20 01:44:38;;;;;;;2.25;2.15;;;15.70;66.80;;;;;;4017679;29;20504;-63
2023/01/20 01:47:19;;;;;;;2.40;2.30;;;15.80;67.00;;;;;;4017436;29;20060;-63
2023/01/20 01:50:01;;;;;;;2.53;2.33;;;15.80;66.60;;;;;;4017674;29;20508;-63
2023/01/20 01:52:45;;;;;;;2.72;2.50;;;15.70;66.40;;;;;;4017611;29;20064;-63
2023/01/20 01:55:28;;;;;;;2.72;2.53;;;15.70;66.60;;;;;;4017518;29;20060;-63
2023/01/20 01:58:12;;;;;;;3.08;2.80;;;15.80;66.60;;;;;;4017570;29;20545;-63
2023/01/20 02:00:54;;;;;;;3.13;2.90;;;15.80;66.40;;;;;;4017325;29;20060;-63
2023/01/20 02:03:43;;;;;;;3.95;3.65;;;15.80;66.30;;;;;;4017492;29;20053;-63
2023/01/20 02:06:29;;;;;;;3.85;3.55;;;15.80;66.30;;;;;;4017252;29;20049;-63
2023/01/20 02:09:11;;;;;;;4.85;4.10;;;15.80;66.30;;;;;;4017153;29;20056;-63
2023/01/20 02:11:58;;;;;;;7.53;4.72;;;15.80;66.20;;;;;;4005861;29;20108;-63
2023/01/20 02:14:43;;;;;;;4.75;4.35;;;15.80;66.00;;;;;;4017268;29;20552;-66
2023/01/20 02:17:29;;;;;;;5.13;4.72;;;15.80;66.10;;;;;;4017245;29;20104;-66
2023/01/20 02:20:33;;;;;;;5.50;4.75;;;15.80;66.20;;;;;;4017162;29;20129;-66
2023/01/20 02:23:32;;;;;;;6.20;5.60;;;15.80;66.10;;;;;;4016918;29;20056;-66
2023/01/20 02:26:42;;;;;;;6.80;5.10;;;15.80;66.10;;;;;;4016916;29;20052;-66
2023/01/20 02:30:09;;;;;;;4.95;4.60;;;15.90;65.70;;;;;;4016591;29;20504;-66
2023/01/20 02:32:56;;;;;;;4.45;4.13;;;15.90;65.60;;;;;;4016156;29;20133;-66
2023/01/20 02:35:43;;;;;;;5.05;4.65;;;15.80;65.90;;;;;;4005377;29;20181;-66
2023/01/20 02:38:45;;;;;;;5.22;4.72;;;15.80;65.90;;;;;;3985377;29;20053;-66
2023/01/20 02:41:35;;;;;;;5.63;5.13;;;15.80;65.80;;;;;;4016953;29;20170;-66
2023/01/20 02:44:22;;;;;;;6.00;5.28;;;15.80;65.80;;;;;;4016858;29;20052;-66
2023/01/20 02:47:11;;;;;;;5.10;4.70;;;15.80;65.90;;;;;;4016819;29;20068;-66
2023/01/20 02:49:58;;;;;;;5.28;4.78;;;15.70;65.90;;;;;;4016719;29;20402;-66
2023/01/20 02:52:42;;;;;;;5.85;5.20;;;15.70;66.20;;;;;;4016765;29;20520;-66
2023/01/20 02:55:29;;;;;;;5.15;4.70;;;15.60;66.30;;;;;;4016859;29;20190;-66
2023/01/20 02:58:15;;;;;;;5.88;5.38;;;15.60;66.60;;;;;;4016757;29;20064;-66
2023/01/20 03:01:01;;;;;;;5.47;5.03;;;15.60;66.80;;;;;;4016601;29;20060;-66
2023/01/20 03:03:46;;;;;;;5.18;4.78;;;15.70;66.70;;;;;;4016618;29;20080;-66
2023/01/20 03:06:33;;;;;;;5.70;5.20;;;15.70;66.20;;;;;;4016714;29;20059;-63
2023/01/20 03:09:19;;;;;;;4.97;4.68;;;15.80;66.20;;;;;;4016671;29;20101;-64
2023/01/20 03:12:06;;;;;;;5.25;4.85;;;15.80;66.10;;;;;;4016627;29;20044;-63
2023/01/20 03:14:48;;;;;;;5.07;4.63;;;15.80;65.80;;;;;;4016829;29;20141;-63
2023/01/20 03:17:28;;;;;;;4.65;4.25;;;15.80;66.80;;;;;;4016735;29;20064;-63
2023/01/20 03:20:11;;;;;;;4.93;4.53;;;15.80;66.20;;;;;;4019558;29;20416;-63
2023/01/20 03:22:53;;;;;;;4.75;4.28;;;15.80;67.10;;;;;;4019552;29;20516;-63
2023/01/20 03:25:34;;;;;;;4.78;4.28;;;15.70;66.00;;;;;;4019662;29;20394;-63
2023/01/20 03:28:15;;;;;;;4.32;4.00;;;15.70;66.00;;;;;;4019329;29;20080;-63
2023/01/20 03:30:57;;;;;;;4.88;4.47;;;15.60;66.30;;;;;;4019413;29;20409;-63
2023/01/20 03:33:38;;;;;;;5.07;4.72;;;15.50;66.40;;;;;;4018967;29;20149;-63
2023/01/20 03:36:21;;;;;;;;;;;15.40;66.70;;;;;;4019675;29;20199;-63
2023/01/20 03:39:05;;;;;;;6.68;5.35;;;15.40;67.40;;;;;;4019360;29;20347;-64
2023/01/20 03:41:55;;;;;;;8.00;5.32;;;15.40;67.60;;;;;;4019107;29;20064;-63
2023/01/20 03:44:50;;;;;;;7.25;5.53;;;15.50;67.30;;;;;;4019125;29;20056;-63
2023/01/20 03:47:48;;;;;;;5.78;5.20;;;15.50;66.90;;;;;;4018889;29;20061;-63
2023/01/20 03:50:38;;;;;;;6.03;5.43;;;15.50;67.60;;;;;;4007626;29;20048;-64
2023/01/20 03:53:27;;;;;;;6.05;5.50;;;15.60;66.60;;;;;;4019330;29;20486;-63
2023/01/20 03:56:17;;;;;;;6.55;5.95;;;15.60;66.60;;;;;;4019312;29;20595;-64
2023/01/20 03:59:00;;;;;;;6.32;5.82;;;15.60;66.80;;;;;;4019190;29;20064;-63
2023/01/20 04:01:44;;;;;;;6.70;6.10;;;15.60;66.80;;;;;;4019029;29;20508;-63
2023/01/20 04:04:25;;;;;;;6.80;6.22;;;15.70;66.60;;;;;;4019321;29;20499;-63
2023/01/20 04:07:08;;;;;;;6.90;6.30;;;15.70;66.50;;;;;;4019208;29;20362;-63
2023/01/20 04:09:52;;;;;;;6.53;5.93;;;15.70;66.40;;;;;;4018927;29;20065;-63
2023/01/20 04:12:34;;;;;;;6.57;5.97;;;15.80;66.20;;;;;;4019068;29;20060;-63
2023/01/20 04:15:16;;;;;;;6.95;6.35;;;15.80;66.10;;;;;;4018974;29;20056;-63
2023/01/20 04:17:57;;;;;;;7.18;6.60;;;15.80;66.00;;;;;;4018992;29;20053;-63
2023/01/20 04:20:38;;;;;;;7.35;6.65;;;15.80;66.20;;;;;;4018905;29;20129;-63
2023/01/20 04:23:23;;;;;;;6.95;6.35;;;15.80;66.10;;;;;;4018846;29;20420;-63
2023/01/20 04:26:04;;;;;;;7.65;6.95;;;15.80;65.80;;;;;;4007361;29;20177;-63
2023/01/20 04:28:46;;;;;;;7.63;6.93;;;15.80;65.90;;;;;;4006891;29;20405;-64
2023/01/20 04:31:27;;;;;;;7.65;6.95;;;15.70;65.90;;;;;;4018685;29;20055;-64
2023/01/20 04:34:14;;;;;;;7.85;7.18;;;15.60;66.10;;;;;;4018479;29;20064;-63
2023/01/20 04:36:54;;;;;;;8.45;7.50;;;15.60;66.40;;;;;;4018472;29;20060;-63
2023/01/20 04:39:35;;;;;;;9.35;8.43;;;15.50;66.80;;;;;;4018614;29;20048;-63
2023/01/20 04:42:16;;;;;;;9.20;8.25;;;15.50;66.90;;;;;;4017559;29;20527;-63
2023/01/20 04:44:59;;;;;;;9.52;8.63;;;15.60;66.90;;;;;;4018186;29;20056;-63
2023/01/20 04:47:39;;;;;;;7.95;7.25;;;15.70;66.40;;;;;;4018135;29;20175;-62
2023/01/20 04:50:21;;;;;;;9.52;8.63;;;15.80;65.70;;;;;;4018167;29;20143;-63
2023/01/20 04:53:01;;;;;;;11.50;8.35;;;15.90;66.00;;;;;;4018152;29;20069;-63
2023/01/20 04:55:43;;;;;;;9.63;8.63;;;16.00;66.30;;;;;;4018368;29;20174;-63
2023/01/20 04:58:24;;;;;;;9.43;8.52;;;16.00;65.10;;;;;;4018349;29;20100;-63
2023/01/20 05:01:06;;;;;;;10.32;8.80;;;16.10;65.00;;;;;;4018084;29;20097;-63
2023/01/20 05:03:47;;;;;;;9.00;7.38;;;16.10;65.60;;;;;;4018183;29;20532;-63
2023/01/20 05:06:28;;;;;;;9.33;7.87;;;16.20;64.60;;;;;;4018371;29;20060;-63
2023/01/20 05:09:11;;;;;;;12.88;8.80;;;16.20;64.50;;;;;;4018196;29;20691;-63
2023/01/20 05:11:52;;;;;;;9.45;8.52;;;16.20;64.40;;;;;;4018187;29;20055;-63
2023/01/20 05:14:33;;;;;;;10.57;8.93;;;16.20;64.30;;;;;;4018200;29;20101;-63
2023/01/20 05:17:15;;;;;;;11.77;8.82;;;16.30;64.20;;;;;;4018247;29;20048;-63
2023/01/20 05:19:56;;;;;;;11.23;8.93;;;16.20;64.00;;;;;;4017936;29;20060;-63
2023/01/20 05:22:37;;;;;;;9.05;8.13;;;16.20;64.10;;;;;;4018040;29;20182;-63
2023/01/20 05:25:18;;;;;;;9.32;8.10;;;16.10;64.20;;;;;;4018057;29;20048;-63
2023/01/20 05:27:59;;;;;;;10.65;9.10;;;16.00;64.40;;;;;;4017874;29;20189;-63
2023/01/20 05:30:40;;;;;;;8.95;8.02;;;15.90;64.80;;;;;;4017850;29;20060;-63
2023/01/20 05:33:23;;;;;;;8.68;7.82;;;15.90;65.40;;;;;;4017609;29;20056;-63
2023/01/20 05:36:05;;;;;;;11.07;8.82;;;15.90;66.20;;;;;;4017742;29;20465;-63
2023/01/20 05:38:46;;;;;;;9.50;8.50;;;16.00;65.10;;;;;;4017700;29;20056;-63
2023/01/20 05:41:27;;;;;;;11.40;8.37;;;16.10;64.90;;;;;;4017363;29;20065;-63
2023/01/20 05:44:08;;;;;;;11.02;8.95;;;16.10;65.60;;;;;;4017782;29;20105;-61
2023/01/20 05:46:49;;;;;;;9.98;8.93;;;16.10;65.40;;;;;;4017346;29;20069;-63
2023/01/20 05:49:31;;;;;;;11.02;9.18;;;16.10;64.50;;;;;;4016958;29;20060;-64
2023/01/20 05:52:12;;;;;;;10.07;9.07;;;16.10;64.60;;;;;;4006049;29;20409;-67
2023/01/20 05:54:52;;;;;;;11.37;8.40;;;16.10;64.60;;;;;;4017340;29;20060;-66
2023/01/20 05:57:34;;;;;;;10.55;8.45;;;16.00;64.50;;;;;;4016960;29;20060;-64
2023/01/20 06:00:17;;;;;;;10.05;8.25;;;16.00;64.50;;;;;;4017258;29;20809;-65
2023/01/20 06:02:58;;;;;;;8.70;7.80;;;16.00;64.80;;;;;;4017251;29;20064;-66
2023/01/20 06:05:40;;;;;;;12.38;8.60;;;16.00;64.90;;;;;;4017234;29;20564;-64
2023/01/20 06:08:21;;;;;;;10.38;8.63;;;16.00;64.80;;;;;;4017081;29;20060;-64
2023/01/20 06:11:02;;;;;;;8.50;7.68;;;16.10;64.50;;;;;;4017372;29;20546;-66
2023/01/20 06:13:43;;;;;;;9.57;7.60;;;16.10;64.10;;;;;;4005994;29;20072;-66
2023/01/20 06:16:23;;;;;;;9.40;7.75;;;16.20;64.00;;;;;;4017371;29;20051;-66
2023/01/20 06:19:04;;;;;;;8.38;7.57;;;16.20;64.20;;;;;;4017335;29;20066;-66
2023/01/20 06:21:48;;;;;;;8.30;7.38;;;16.20;63.80;;;;;;4017314;29;20077;-66
2023/01/20 06:24:29;;;;;;;9.82;8.05;;;16.20;63.80;;;;;;4016283;29;20065;-66
2023/01/20 06:27:10;;;;;;;8.27;7.32;;;16.30;63.70;;;;;;4017189;29;20075;-66
2023/01/20 06:29:53;;;;;;;9.32;8.35;;;16.30;63.70;;;;;;4017075;29;20405;-66
2023/01/20 06:32:34;;;;;;;9.18;7.82;;;16.20;63.50;;;;;;4017048;29;20129;-66
2023/01/20 06:35:15;;;;;;;9.30;8.00;;;16.20;63.70;;;;;;4016839;29;20051;-66
2023/01/20 06:37:59;;;;;;;9.85;8.27;;;16.10;63.90;;;;;;4005702;29;20068;-66
2023/01/20 06:40:40;;;;;;;9.35;8.45;;;16.00;64.00;;;;;;4017005;29;20478;-66
2023/01/20 06:43:21;;;;;;;8.27;7.47;;;15.90;64.40;;;;;;4017011;29;20182;-66
2023/01/20 06:46:04;;;;;;;9.98;8.68;;;15.80;65.10;;;;;;4016628;29;20064;-63
2023/01/20 06:48:46;;;;;;;10.00;7.70;;;15.70;65.20;;;;;;4016770;29;20060;-66
2023/01/20 06:51:28;;;;;;;9.20;7.80;;;15.80;65.40;;;;;;4016474;29;20048;-68
2023/01/20 06:54:10;;;;;;;9.45;7.97;;;15.90;65.00;;;;;;4016253;29;20086;-69
2023/01/20 06:56:51;;;;;;;10.30;7.97;;;16.00;65.20;;;;;;4016492;29;20189;-66
2023/01/20 06:59:32;;;;;;;8.60;7.70;;;16.10;65.00;;;;;;4016607;29;20505;-67
2023/01/20 07:02:13;;;;;;;9.32;8.35;;;16.20;64.70;;;;;;4002969;29;20056;-68
2023/01/20 07:04:54;;;;;;;9.55;8.20;;;16.20;64.50;;;;;;4015854;29;20078;-67
2023/01/20 07:07:35;;;;;;;8.77;7.80;;;16.30;64.30;;;;;;4016042;29;20230;-68
2023/01/20 07:10:18;;;;;;;9.65;7.70;;;16.20;64.00;;;;;;4016512;29;20064;-68
2023/01/20 07:12:59;;;;;;;7.60;6.88;;;16.20;64.10;;;;;;4016455;29;20056;-67
2023/01/20 07:15:40;;;;;;;10.68;7.88;;;16.30;64.10;;;;;;4016642;29;20556;-68
2023/01/20 07:18:21;;;;;;;10.18;8.43;;;16.30;63.90;;;;;;4016437;29;20492;-68
2023/01/20 07:21:01;;;;;;;8.68;7.80;;;16.40;64.50;;;;;;4016638;29;20157;-67
2023/01/20 07:23:43;;;;;;;8.32;7.55;;;16.40;63.40;;;;;;4016223;29;20088;-67
2023/01/20 07:26:26;;;;;;;8.93;8.02;;;16.40;63.30;;;;;;4016470;29;20056;-67
2023/01/20 07:29:06;;;;;;;10.43;7.75;;;16.40;63.30;;;;;;4016489;29;20052;-67
2023/01/20 07:31:47;;;;;;;9.68;8.57;;;16.30;63.40;;;;;;4004791;29;20057;-67
2023/01/20 07:34:28;;;;;;;9.95;8.30;;;16.20;63.60;;;;;;4015786;29;20077;-66
2023/01/20 07:37:09;;;;;;;10.88;9.55;;;16.10;65.00;;;;;;4016333;29;20151;-66
2023/01/20 07:39:50;;;;;;;10.25;8.50;;;16.10;64.30;;;;;;4016172;29;20130;-66
2023/01/20 07:42:33;;;;;;;9.80;8.80;;;16.20;64.20;;;;;;4016627;29;20060;-67
2023/01/20 07:45:14;;;;;;;11.35;9.05;;;16.30;63.90;;;;;;4016315;29;20631;-67
2023/01/20 07:47:55;;;;;;;;;;;16.30;63.80;;;;;;4016812;29;20048;-67
2023/01/20 07:50:37;;;;;;;10.73;8.93;;;16.30;63.80;;;;;;4016340;29;19935;-67
2023/01/20 07:53:17;;;;;;;12.13;9.52;;;16.30;63.70;;;;;;4016276;29;20129;-67
2023/01/20 07:56:00;;;;;;;12.70;9.38;;;16.30;63.50;;;;;;4016177;29;20511;-66
2023/01/20 07:58:44;;;;;;;11.32;9.25;;;16.30;63.40;;;;;;4016313;29;20191;-66
2023/01/20 08:01:26;;;;;;;11.93;10.00;;;16.30;63.40;;;;;;4016234;29;20225;-65
2023/01/20 08:04:07;;;;;;;10.82;9.20;;;16.30;63.40;;;;;;4017238;29;20061;-66
2023/01/20 08:06:48;;;;;;;10.18;9.07;;;16.30;63.30;;;;;;4018296;29;20056;-66
2023/01/20 08:09:30;;;;;;;10.43;9.27;;;16.30;63.50;;;;;;4019117;29;20060;-66
2023/01/20 08:12:11;;;;;;;11.55;9.02;;;16.20;63.50;;;;;;4018903;29;20393;-66
2023/01/20 08:14:53;;;;;;;11.73;9.73;;;16.20;63.60;;;;;;4019039;29;20057;-65
2023/01/20 08:17:33;;;;;;;14.00;9.93;;;16.10;63.70;;;;;;4016147;29;20347;-66
2023/01/20 08:20:15;;;;;;;11.43;10.00;;;16.00;64.00;;;;;;4016828;29;20132;-66
2023/01/20 08:22:58;;;;;;;11.75;9.82;;;16.00;64.20;;;;;;4018381;29;20121;-66
2023/01/20 08:25:39;;;;;;;12.93;10.70;;;16.00;64.30;;;;;;4018671;29;20402;-66
2023/01/20 08:28:20;;;;;;;15.73;11.75;;;15.90;64.40;;;;;;4003244;29;20484;-66
2023/01/20 08:31:05;;;;;;;13.23;10.85;;;15.90;64.80;;;;;;4003330;29;20438;-66
2023/01/20 08:33:47;;;;;;;12.43;10.52;;;15.90;64.60;;;;;;4003004;29;20061;-66
2023/01/20 08:36:30;;;;;;;14.63;11.10;;;16.00;64.60;;;;;;4003367;29;20060;-66
2023/01/20 08:39:16;;;;;;;13.45;10.65;;;16.00;64.40;;;;;;4003170;29;20150;-66
2023/01/20 08:41:57;;;;;;;16.42;11.48;;;16.00;64.40;;;;;;4003415;29;20508;-66
2023/01/20 08:44:38;;;;;;;17.70;14.15;;;16.10;64.20;;;;;;4003330;29;20153;-66
2023/01/20 08:47:20;;;;;;;19.40;12.05;;;16.10;63.90;;;;;;4003395;29;20090;-66
2023/01/20 08:50:01;;;;;;;15.15;12.45;;;16.20;63.90;;;;;;4003241;29;20125;-66
2023/01/20 08:52:42;;;;;;;15.25;12.07;;;16.20;63.80;;;;;;4015098;29;20085;-66
2023/01/20 08:55:23;;;;;;;15.45;12.45;;;16.30;63.70;;;;;;4018533;29;20057;-66
2023/01/20 08:58:04;;;;;;;15.35;11.93;;;16.30;63.70;;;;;;4018098;29;20049;-67
2023/01/20 09:00:45;;;;;;;14.73;12.57;;;16.20;63.70;;;;;;4017974;29;20056;-67
2023/01/20 09:03:28;;;;;;;14.90;11.65;;;16.30;63.80;;;;;;4017920;29;20056;-66
2023/01/20 09:06:10;;;;;;;17.60;12.85;;;16.30;63.50;;;;;;4018324;29;20065;-66
2023/01/20 09:08:52;;;;;;;17.52;13.27;;;16.40;63.40;;;;;;4018248;29;20513;-66
2023/01/20 09:11:33;;;;;;;;;;;16.40;63.30;;;;;;4018416;29;20064;-66
2023/01/20 09:14:14;;;;;;;15.65;12.85;;;16.30;63.50;;;;;;4017792;29;19931;-66
2023/01/20 09:16:55;;;;;;;16.80;13.07;;;16.40;63.60;;;;;;4017469;29;20060;-65
2023/01/20 09:19:37;;;;;;;17.55;13.90;;;16.40;63.30;;;;;;4018189;29;20421;-66
2023/01/20 09:22:18;;;;;;;17.08;13.57;;;16.40;63.20;;;;;;4006637;29;20057;-65
2023/01/20 09:24:59;;;;;;;18.35;13.68;;;16.40;62.80;;;;;;4018111;29;20053;-66
2023/01/20 09:27:40;;;;;;;;;;;16.40;62.20;;;;;;4018555;29;20060;-61
2023/01/20 09:30:20;;;;;;;18.23;13.55;;;16.40;61.90;;;;;;4018011;29;19931;-61
2023/01/20 09:33:01;;;;;;;17.65;13.38;;;16.30;61.80;;;;;;4017105;29;20512;-61
2023/01/20 09:35:44;;;;;;;18.10;13.50;;;16.30;61.70;;;;;;4016772;29;20445;-62
2023/01/20 09:44:46;;;;;;;17.52;14.13;;;16.10;61.60;;;;;;4017707;29;20052;-62
2023/01/20 09:47:29;;;;;;;17.85;13.68;;;16.10;61.80;;;;;;4016941;29;20094;-62
2023/01/20 09:53:47;;;;;;;19.77;14.15;;;16.20;62.10;;;;;;4017341;29;20060;-62
2023/01/20 09:56:30;;;;;;;17.27;13.35;;;16.20;61.20;;;;;;4017409;29;20056;-62
2023/01/20 09:59:18;;;;;;;22.10;15.40;;;16.20;61.20;;;;;;4017084;29;20084;-61
2023/01/20 10:02:04;;;;;;;18.10;13.40;;;16.20;60.90;;;;;;4016632;29;20052;-62
2023/01/20 10:04:49;;;;;;;17.65;13.77;;;16.20;61.10;;;;;;4016108;29;20092;-62
2023/01/20 10:07:37;;;;;;;19.02;13.77;;;16.10;61.20;;;;;;4016783;29;20185;-62
2023/01/20 10:10:23;;;;;;;20.10;14.10;;;16.20;61.00;;;;;;4017230;29;20048;-62
2023/01/20 10:13:10;;;;;;;19.75;15.02;;;16.10;60.90;;;;;;4017095;29;20061;-61
2023/01/20 10:15:54;;;;;;;20.00;14.95;;;16.10;61.00;;;;;;4016702;29;20109;-65
2023/01/20 10:18:41;;;;;;;18.95;13.75;;;16.00;61.10;;;;;;4017200;29;20090;-65
2023/01/20 10:21:30;;;;;;;19.67;14.10;;;15.90;61.20;;;;;;4016202;29;20087;-65
2023/01/20 10:24:16;;;;;;;20.55;14.85;;;15.80;61.60;;;;;;4017152;29;20385;-65
2023/01/20 10:27:02;;;;;;;20.00;13.65;;;15.80;61.90;;;;;;4016407;29;20097;-65
2023/01/20 10:29:47;;;;;;;21.85;15.07;;;15.80;61.90;;;;;;4017246;29;20060;-65
2023/01/20 10:32:35;;;;;;;18.88;13.57;;;15.90;61.80;;;;;;4017061;29;20087;-67
2023/01/20 10:35:19;;;;;;;20.38;14.18;;;15.90;61.60;;;;;;4016978;29;20417;-68
2023/01/20 10:38:00;;;;;;;20.35;14.48;;;16.00;61.40;;;;;;4017016;29;20093;-67
2023/01/20 10:40:47;;;;;;;19.52;14.77;;;16.10;61.20;;;;;;4017051;29;20081;-66
2023/01/20 10:43:30;;;;;;;17.30;13.55;;;16.20;60.70;;;;;;4016796;29;20075;-64
2023/01/20 10:46:22;;;;;;;21.48;14.38;;;16.30;60.70;;;;;;4015905;29;20061;-65
2023/01/20 10:49:44;;;;;;;21.10;14.68;;;16.30;60.10;;;;;;4016193;29;20495;-65
2023/01/20 10:52:45;;;;;;;19.80;13.93;;;16.40;59.70;;;;;;3969666;29;20061;-65
2023/01/20 10:55:38;;;;;;;19.70;13.98;;;16.50;59.60;;;;;;4016669;29;20577;-66
2023/01/20 10:58:24;;;;;;;19.27;14.68;;;16.50;59.50;;;;;;4016465;29;20051;-67
2023/01/20 11:01:07;;;;;;;23.08;15.23;;;16.60;59.60;;;;;;4016662;29;20405;-67
2023/01/20 11:03:49;;;;;;;19.55;15.00;;;16.60;59.40;;;;;;4016767;29;20134;-68
2023/01/20 11:06:30;;;;;;;21.20;14.68;;;16.50;59.20;;;;;;4016670;29;20056;-66
2023/01/20 11:09:21;;;;;;;18.52;13.77;;;16.50;60.10;;;;;;4016622;29;20076;-66
2023/01/20 11:12:06;;;;;;;19.67;14.93;;;16.40;59.50;;;;;;4016573;29;20064;-62
2023/01/20 11:14:48;;;;;;;19.25;13.93;;;16.30;59.90;;;;;;4016631;29;20128;-62
2023/01/20 11:17:30;;;;;;;20.08;14.65;;;16.20;60.10;;;;;;4015953;29;20182;-63
2023/01/20 11:20:18;;;;;;;19.08;14.73;;;16.20;60.30;;;;;;4016779;29;20113;-62
2023/01/20 11:22:58;;;;;;;19.33;14.77;;;16.20;60.30;;;;;;4016564;29;20182;-69
2023/01/20 11:25:39;;;;;;;24.05;14.95;;;16.10;60.50;;;;;;4016626;29;20215;-67
2023/01/20 11:28:20;;;;;;;22.52;15.27;;;16.10;60.40;;;;;;4016584;29;20106;-67
2023/01/20 11:31:03;;;;;;;22.65;15.25;;;16.10;60.40;;;;;;4016654;29;20060;-67
2023/01/20 11:34:00;;;;;;;20.52;14.30;;;16.10;60.50;;;;;;4016388;29;20137;-67
2023/01/20 11:36:41;;;;;;;25.60;17.25;;;16.10;60.30;;;;;;4016265;29;20052;-67
2023/01/20 11:39:27;;;;;;;25.67;15.82;;;16.10;60.40;;;;;;4018005;29;20064;-62
2023/01/20 11:42:15;;;;;;;20.92;14.05;;;16.10;60.00;;;;;;4019537;29;20060;-61
2023/01/20 11:44:59;;;;;;;25.55;16.67;;;16.10;59.90;;;;;;4015573;29;20052;-63
2023/01/20 11:48:03;;;;;;;21.65;15.02;;;16.10;60.10;;;;;;4008626;29;20057;-63
2023/01/20 11:50:49;;;;;;;22.63;15.90;;;16.10;60.50;;;;;;4009259;29;20080;-63
2023/01/20 11:53:31;;;;;;;25.15;16.02;;;16.00;60.50;;;;;;4008676;29;20064;-63
2023/01/20 11:56:17;;;;;;;22.25;15.70;;;16.00;60.70;;;;;;4007181;29;20143;-63
2023/01/20 11:59:00;;;;;;;21.80;15.73;;;15.90;60.80;;;;;;4009605;29;20406;-64
2023/01/20 12:01:51;;;;;;;23.83;16.90;;;15.90;61.10;;;;;;4011231;29;20055;-63
2023/01/20 12:05:00;;;;;;;21.65;15.55;;;15.90;61.00;;;;;;4009131;29;20523;-63
2023/01/20 12:07:46;;;;;;;23.15;15.60;;;15.90;61.00;;;;;;4006552;29;20064;-63
2023/01/20 12:10:30;;;;;;;25.17;16.73;;;15.90;61.10;;;;;;4010539;29;20431;-63
2023/01/20 12:13:19;;;;;;;26.20;15.82;;;15.90;61.30;;;;;;4010530;29;20623;-63
2023/01/20 12:16:01;;;;;;;21.55;16.08;;;16.00;61.10;;;;;;4012442;29;20056;-63
2023/01/20 12:18:51;;;;;;;23.25;16.02;;;16.00;61.10;;;;;;4007655;29;20068;-65
2023/01/20 12:21:47;;;;;;;25.40;15.80;;;16.00;60.90;;;;;;4009347;29;20186;-64
2023/01/20 12:25:06;;;;;;;24.02;16.45;;;16.00;60.80;;;;;;4006582;29;20063;-63
2023/01/20 12:27:35;;;;;;;23.30;15.38;;;16.10;60.40;;;;;;4007566;29;20069;-64
2023/01/20 12:30:45;;;;;;;24.88;17.02;;;16.10;60.10;;;;;;4015670;29;20085;-63
2023/01/20 12:33:30;;;;;;;24.33;15.43;;;16.10;59.60;;;;;;4015508;29;20076;-63
2023/01/20 12:36:36;;;;;;;23.15;15.25;;;16.10;60.70;;;;;;4011017;29;20508;-63
2023/01/20 12:39:57;;;;;;;21.95;15.55;;;16.10;59.60;;;;;;4008702;29;20049;-63
2023/01/20 12:42:59;;;;;;;21.92;15.07;;;16.10;60.00;;;;;;4009629;29;20060;-63
2023/01/20 12:45:51;;;;;;;22.95;15.23;;;16.00;59.90;;;;;;4012199;29;20061;-63
2023/01/20 12:48:43;;;;;;;24.98;15.43;;;15.90;60.30;;;;;;4007411;29;20074;-63
2023/01/20 12:51:35;;;;;;;24.30;15.43;;;15.80;60.40;;;;;;4010492;29;20060;-63
2023/01/20 12:54:36;;;;;;;23.05;14.18;;;15.70;60.60;;;;;;4013523;29;20069;-63
2023/01/20 12:57:42;;;;;;;23.00;15.25;;;15.70;60.60;;;;;;4005461;29;20507;-63
2023/01/20 13:00:49;;;;;;;24.38;16.15;;;15.80;60.40;;;;;;4008231;29;20461;-63
2023/01/20 13:04:00;;;;;;;25.42;15.98;;;15.90;60.10;;;;;;4005469;29;20057;-63
2023/01/20 13:07:04;;;;;;;22.02;15.05;;;16.00;60.30;;;;;;4003013;29;20057;-62
2023/01/20 13:10:02;;;;;;;25.35;15.43;;;16.10;60.10;;;;;;4012675;29;20057;-63
2023/01/20 13:12:51;;;;;;;23.15;15.30;;;16.10;59.80;;;;;;4002095;29;20045;-65
2023/01/20 13:15:38;;;;;;;24.02;14.73;;;16.10;59.60;;;;;;4002878;29;20117;-63
2023/01/20 13:18:27;;;;;;;19.98;14.57;;;16.10;59.60;;;;;;4003162;29;20102;-63
2023/01/20 13:21:15;;;;;;;25.65;15.02;;;16.10;59.60;;;;;;4003220;29;20182;-62
2023/01/20 13:24:00;;;;;;;20.10;14.65;;;16.00;59.70;;;;;;4003084;29;20053;-63
2023/01/20 13:26:43;;;;;;;22.90;15.52;;;15.90;59.90;;;;;;4003132;29;20496;-62
2023/01/20 13:29:42;;;;;;;24.00;15.48;;;15.90;60.10;;;;;;4012773;29;20073;-62
2023/01/20 13:32:32;;;;;;;21.42;14.52;;;15.90;60.10;;;;;;4002694;29;20068;-63
2023/01/20 13:35:42;;;;;;;21.23;13.80;;;16.00;59.70;;;;;;4013658;29;20056;-63
2023/01/20 13:38:26;;;;;;;22.63;15.20;;;16.10;59.50;;;;;;4017644;29;20397;-63
2023/01/20 13:41:08;;;;;;;21.20;14.52;;;16.10;59.70;;;;;;4017717;29;20090;-64
2023/01/20 13:43:51;;;;;;;21.90;14.75;;;16.10;59.70;;;;;;4017485;29;20693;-63
2023/01/20 13:46:47;;;;;;;21.17;14.02;;;16.30;59.60;;;;;;4017640;29;20065;-63
2023/01/20 13:49:45;;;;;;;24.10;15.13;;;16.30;59.10;;;;;;4017446;29;20077;-63
2023/01/20 13:53:10;;;;;;;22.63;15.63;;;16.40;59.00;;;;;;4017348;29;20066;-63
2023/01/20 13:56:00;;;;;;;21.88;14.90;;;16.30;58.70;;;;;;3969066;29;20961;-63
2023/01/20 13:58:42;;;;;;;20.20;13.63;;;16.30;59.00;;;;;;4017214;29;20145;-64
2023/01/20 14:01:25;;;;;;;22.50;14.35;;;16.40;59.00;;;;;;4015735;29;20060;-65
2023/01/20 14:04:14;;;;;;;24.05;14.68;;;16.40;58.70;;;;;;4016561;29;20056;-68
2023/01/20 14:06:55;;;;;;;21.00;14.50;;;16.40;58.80;;;;;;4016902;29;20061;-69
2023/01/20 14:09:38;;;;;;;21.45;13.73;;;16.30;58.80;;;;;;4016511;29;20076;-69
2023/01/20 14:12:20;;;;;;;25.20;14.88;;;16.30;58.90;;;;;;4016985;29;20062;-69
2023/01/20 14:15:00;;;;;;;22.00;13.65;;;16.20;58.90;;;;;;4001701;29;20070;-69
2023/01/20 14:17:43;;;;;;;20.67;14.15;;;16.10;59.20;;;;;;4001612;29;20508;-69
2023/01/20 14:20:26;;;;;;;21.48;14.27;;;16.00;59.60;;;;;;4002470;29;20526;-69